Time;durP1;ratioP1;P1;durP2;ratioP2;P2;SDS_P1;SDS_P2;PMS_P1;PMS_P2;Temp;Humidity;BMP_temperature;BMP_pressure;BME280_temperature;BME280_humidity;BME280_pressure;Samples;Min_cycle;Max_cycle;Signal;HPM_P1;HPM_P2
2023/05/25 00:01:23;;;;;;;9.23;3.05;;;;;;;11.49;83.96;102664.41;4992142;28;20367;-72
2023/05/25 00:03:51;;;;;;;9.45;3.42;;;;;;;11.45;84.34;102657.50;4997173;28;20089;-72
2023/05/25 00:06:17;;;;;;;7.83;3.00;;;;;;;11.50;84.25;102662.69;4997387;28;20321;-72
2023/05/25 00:08:42;;;;;;;6.90;3.15;;;;;;;11.50;84.54;102660.06;4993178;28;20293;-72
2023/05/25 00:11:08;;;;;;;9.57;2.60;;;;;;;11.54;84.24;102664.34;4997554;28;20325;-72
2023/05/25 00:13:33;;;;;;;10.85;4.07;;;;;;;11.52;84.50;102669.63;4996433;28;20030;-72
2023/05/25 00:15:59;;;;;;;10.43;3.65;;;;;;;11.51;84.54;102662.66;4997438;28;20030;-72
2023/05/25 00:18:25;;;;;;;8.18;3.72;;;;;;;11.54;84.61;102666.97;4997430;28;20387;-72
2023/05/25 00:20:54;;;;;;;10.88;3.20;;;;;;;11.52;84.74;102666.13;4996702;28;20337;-72
2023/05/25 00:23:20;;;;;;;9.02;4.18;;;;;;;11.54;84.59;102661.72;4997659;28;20034;-72
2023/05/25 00:25:45;;;;;;;12.32;4.75;;;;;;;11.52;84.81;102671.38;4994670;28;20402;-72
2023/05/25 00:28:11;;;;;;;9.68;3.72;;;;;;;11.53;85.20;102659.97;5001016;28;20053;-72
2023/05/25 00:30:36;;;;;;;10.55;3.78;;;;;;;11.53;84.80;102662.59;5000645;28;20042;-72
2023/05/25 00:33:02;;;;;;;8.45;3.95;;;;;;;11.53;85.07;102659.97;4999244;28;20042;-72
2023/05/25 00:35:28;;;;;;;8.10;3.40;;;;;;;11.52;84.96;102656.50;5000469;28;20057;-72
2023/05/25 00:37:53;;;;;;;9.20;3.90;;;;;;;11.49;85.92;102664.41;5000322;28;20041;-72
2023/05/25 00:40:19;;;;;;;11.98;3.90;;;;;;;11.50;86.17;102665.31;5001023;28;20036;-72
2023/05/25 00:42:45;;;;;;;10.23;4.03;;;;;;;11.47;86.33;102673.22;5000299;28;20018;-72
2023/05/25 00:45:10;;;;;;;11.27;3.90;;;;;;;11.45;86.85;102670.59;4997516;28;20058;-72
2023/05/25 00:47:36;;;;;;;11.20;4.13;;;;;;;11.42;87.51;102669.78;5000404;28;20354;-72
2023/05/25 00:50:02;;;;;;;14.85;4.53;;;;;;;11.41;88.04;102668.94;5000231;28;20046;-72
2023/05/25 00:52:28;;;;;;;6.57;3.70;;;;;;;11.48;87.42;102662.69;5000468;28;20141;-72
2023/05/25 00:55:14;;;;;;;15.05;3.53;;;;;;;11.50;87.45;102671.41;4999608;28;20058;-72
2023/05/25 00:57:44;;;;;;;10.38;4.38;;;;;;;11.51;88.16;102665.28;4999178;28;20030;-72
2023/05/25 01:00:11;;;;;;;14.52;4.00;;;;;;;11.51;88.00;102667.03;5000134;28;20038;-72
2023/05/25 01:05:07;;;;;;;14.87;4.23;;;;;;;11.52;88.45;102672.25;4992511;28;20081;-72
2023/05/25 01:07:35;;;;;;;11.60;4.03;;;;;;;11.56;88.40;102678.31;5000749;28;20077;-72
2023/05/25 01:10:04;;;;;;;15.98;4.47;;;;;;;11.58;88.53;102675.66;4999612;28;20038;-72
2023/05/25 01:12:36;;;;;;;11.50;4.07;;;;;;;11.60;88.03;102685.25;5000200;28;20022;-72
2023/05/25 01:15:02;;;;;;;10.70;3.83;;;;;;;11.60;88.15;102680.00;5000127;28;20088;-72
2023/05/25 01:17:28;;;;;;;12.38;3.97;;;;;;;11.59;88.69;102682.63;5000070;28;20053;-72
2023/05/25 01:19:57;;;;;;;9.45;4.15;;;;;;;11.55;89.00;102688.84;4999529;28;20034;-72
2023/05/25 01:22:55;;;;;;;12.25;4.05;;;;;;;11.53;88.76;102695.00;4999618;28;20048;-72
2023/05/25 01:25:38;;;;;;;8.82;3.97;;;;;;;11.56;88.66;102680.94;4999341;28;20237;-72
2023/05/25 01:28:14;;;;;;;14.80;4.50;;;;;;;11.50;88.50;102695.03;4999663;28;20265;-72
2023/05/25 01:30:44;;;;;;;15.02;4.15;;;;;;;11.50;89.12;102689.78;4985964;28;20106;-72
2023/05/25 01:33:10;;;;;;;7.75;3.92;;;;;;;11.52;88.88;102695.88;4980518;28;20022;-72
2023/05/25 01:35:35;;;;;;;7.85;3.75;;;;;;;11.53;88.98;102691.47;4980208;28;20104;-72
2023/05/25 01:38:01;;;;;;;13.23;4.53;;;;;;;11.48;89.22;102693.31;4980390;28;20042;-72
2023/05/25 01:40:26;;;;;;;11.52;4.82;;;;;;;11.48;89.31;102686.31;4980019;28;20121;-72
2023/05/25 01:42:52;;;;;;;10.60;4.18;;;;;;;11.49;89.19;102693.28;4980638;28;20061;-72
2023/05/25 01:45:18;;;;;;;6.68;4.40;;;;;;;11.44;88.93;102700.38;4990405;28;20046;-72
2023/05/25 01:47:47;;;;;;;9.35;4.05;;;;;;;11.40;89.10;102698.66;4999141;28;20046;-72
2023/05/25 01:50:12;;;;;;;;;;;;;;;11.44;89.14;102702.09;4999948;28;20113;-72
2023/05/25 01:52:54;;;;;;;8.37;4.17;;;;;;;11.45;88.83;102695.97;4999027;28;20173;-72
2023/05/25 01:55:21;;;;;;;11.18;4.80;;;;;;;11.37;89.20;102708.34;4999330;28;20080;-72
2023/05/25 01:57:49;;;;;;;11.38;4.50;;;;;;;11.33;89.61;102702.25;4998740;28;20030;-72
2023/05/25 02:00:18;;;;;;;12.23;4.45;;;;;;;11.29;89.82;102709.31;4994492;28;20226;-72
2023/05/25 02:02:46;;;;;;;8.82;4.57;;;;;;;11.33;90.14;102703.16;4979412;28;20066;-72
2023/05/25 02:05:12;;;;;;;10.93;4.45;;;;;;;11.32;89.54;102711.03;4979592;28;20038;-72
2023/05/25 02:07:38;;;;;;;8.20;4.10;;;;;;;11.34;89.69;102709.25;4979071;28;20078;-72
2023/05/25 02:10:04;;;;;;;10.40;4.00;;;;;;;11.34;89.33;102711.88;4982015;28;20035;-72
2023/05/25 02:12:29;;;;;;;7.88;4.47;;;;;;;11.36;89.25;102706.63;4998724;28;20042;-72
2023/05/25 02:14:55;;;;;;;8.35;4.07;;;;;;;11.34;89.03;102710.13;4998254;28;20045;-72
2023/05/25 02:17:20;;;;;;;10.95;5.25;;;;;;;11.27;89.12;102711.09;4999993;28;20038;-72
2023/05/25 02:19:47;;;;;;;14.30;4.93;;;;;;;11.32;89.53;102713.66;4996016;28;20376;-72
2023/05/25 02:22:13;;;;;;;9.85;5.05;;;;;;;11.28;89.43;102711.97;4998638;28;20057;-72
2023/05/25 02:24:38;;;;;;;14.45;5.40;;;;;;;11.21;89.34;102719.03;4998806;28;20042;-72
2023/05/25 02:27:05;;;;;;;9.20;4.50;;;;;;;11.25;89.74;102715.50;4981915;28;20336;-72
2023/05/25 02:29:30;;;;;;;7.45;4.93;;;;;;;11.28;89.15;102714.59;4998550;28;20344;-72
2023/05/25 02:31:56;;;;;;;10.55;4.43;;;;;;;11.27;88.86;102720.72;4992049;28;20079;-72
2023/05/25 02:34:21;;;;;;;8.95;4.72;;;;;;;11.27;89.02;102728.59;4985064;28;20058;-72
2023/05/25 02:36:47;;;;;;;9.55;4.45;;;;;;;11.28;88.53;102715.47;4978771;28;20265;-72
2023/05/25 02:39:12;;;;;;;10.50;5.07;;;;;;;11.23;89.18;102717.28;4979222;28;20046;-72
2023/05/25 02:41:38;;;;;;;14.63;5.78;;;;;;;11.18;89.09;102720.84;4979167;28;20046;-72
2023/05/25 02:44:03;;;;;;;7.88;5.40;;;;;;;11.19;89.75;102714.69;4978753;28;20050;-72
2023/05/25 02:46:29;;;;;;;7.00;5.22;;;;;;;11.18;89.33;102715.59;4979385;28;20046;-72
2023/05/25 02:48:54;;;;;;;11.60;5.85;;;;;;;11.15;89.58;102721.72;4978309;28;20380;-72
2023/05/25 02:51:20;;;;;;;12.20;6.57;;;;;;;11.13;89.48;102724.41;4979281;28;20038;-72
2023/05/25 02:53:45;;;;;;;9.65;6.03;;;;;;;11.12;90.05;102721.78;4979165;28;20387;-72
2023/05/25 02:56:10;;;;;;;13.57;6.45;;;;;;;11.12;89.62;102713.94;4978033;28;20091;-72
2023/05/25 02:58:37;;;;;;;7.68;5.22;;;;;;;11.14;89.54;102727.88;4978898;28;20043;-71
2023/05/25 03:01:04;;;;;;;13.80;5.38;;;;;;;11.15;89.11;102726.97;4982212;28;20022;-71
2023/05/25 03:03:30;;;;;;;7.50;5.13;;;;;;;11.16;89.02;102730.50;4997947;28;20034;-71
2023/05/25 03:05:58;;;;;;;13.45;5.47;;;;;;;11.18;88.83;102731.34;4986712;28;20238;-71
2023/05/25 03:08:24;;;;;;;9.40;5.35;;;;;;;11.18;88.76;102732.19;4997487;28;20042;-71
2023/05/25 03:10:49;;;;;;;15.13;5.97;;;;;;;11.16;88.24;102736.59;4997421;28;20081;-72
2023/05/25 03:13:15;;;;;;;9.90;5.45;;;;;;;11.14;88.16;102733.97;4997946;28;20106;-72
2023/05/25 03:15:40;;;;;;;13.98;5.72;;;;;;;11.13;88.42;102734.88;4997562;28;20033;-72
2023/05/25 03:18:06;;;;;;;13.57;6.20;;;;;;;11.12;88.54;102742.78;4997806;28;20105;-72
2023/05/25 03:20:33;;;;;;;7.05;5.93;;;;;;;11.10;88.80;102734.91;4995456;28;20042;-72
2023/05/25 03:22:58;;;;;;;12.05;6.32;;;;;;;11.10;88.33;102731.44;4978495;28;20394;-72
2023/05/25 03:25:23;;;;;;;13.50;6.47;;;;;;;11.05;89.12;102728.84;4978027;28;20031;-72
2023/05/25 03:27:53;;;;;;;13.70;6.47;;;;;;;11.03;88.99;102728.00;4977972;28;20057;-72
2023/05/25 03:30:20;;;;;;;10.88;6.20;;;;;;;11.03;88.80;102741.13;4978159;28;20034;-72
2023/05/25 03:32:45;;;;;;;9.38;6.10;;;;;;;11.03;88.99;102729.78;4978148;28;20085;-72
2023/05/25 03:35:10;;;;;;;12.88;6.03;;;;;;;11.02;88.88;102734.13;4978171;28;20035;-72
2023/05/25 03:37:36;;;;;;;12.55;6.47;;;;;;;10.96;88.27;102736.84;4979242;28;20125;-72
2023/05/25 03:40:01;;;;;;;13.18;6.35;;;;;;;10.93;88.40;102737.75;4978357;28;20385;-72
2023/05/25 03:42:27;;;;;;;9.43;6.07;;;;;;;10.91;88.24;102738.66;4977941;28;20046;-72
2023/05/25 03:44:52;;;;;;;10.15;5.55;;;;;;;10.92;88.24;102743.00;4979505;28;20363;-72
2023/05/25 03:47:18;;;;;;;11.85;5.90;;;;;;;10.89;88.00;102743.91;4997097;28;20050;-72
2023/05/25 03:49:43;;;;;;;11.07;6.57;;;;;;;10.87;87.69;102739.56;4997521;28;20042;-72
2023/05/25 03:52:09;;;;;;;7.78;5.70;;;;;;;10.85;87.52;102747.44;4989907;28;20077;-72
2023/05/25 03:54:34;;;;;;;10.05;6.10;;;;;;;10.82;87.13;102739.59;4986421;28;20278;-72
2023/05/25 03:57:02;;;;;;;11.10;5.93;;;;;;;10.78;87.16;102745.78;4997027;28;20034;-72
2023/05/25 03:59:27;;;;;;;9.55;6.00;;;;;;;10.75;87.37;102751.03;4997295;28;20049;-72
2023/05/25 04:01:53;;;;;;;10.38;6.07;;;;;;;10.73;87.03;102747.56;4996178;28;20383;-72
2023/05/25 04:04:19;;;;;;;8.82;5.93;;;;;;;10.71;87.17;102752.88;4987413;28;20068;-72
2023/05/25 04:06:47;;;;;;;8.52;5.78;;;;;;;10.68;87.40;102752.03;4998048;28;20038;-72
2023/05/25 04:09:13;;;;;;;11.60;6.38;;;;;;;10.66;87.40;102753.75;4981362;28;20266;-72
2023/05/25 04:11:39;;;;;;;8.07;5.65;;;;;;;10.66;87.46;102753.75;4996069;28;20049;-72
2023/05/25 04:14:04;;;;;;;8.38;5.90;;;;;;;10.63;87.26;102753.81;4984370;28;20038;-72
2023/05/25 04:16:29;;;;;;;10.13;5.32;;;;;;;10.62;87.23;102758.16;5000920;28;20066;-72
2023/05/25 04:18:55;;;;;;;10.25;5.75;;;;;;;10.59;87.46;102757.31;5000572;28;20049;-72
2023/05/25 04:21:21;;;;;;;9.25;6.20;;;;;;;10.58;87.63;102761.72;5001423;28;20041;-72
2023/05/25 04:23:46;;;;;;;12.48;5.93;;;;;;;10.57;87.65;102758.22;4983314;28;20034;-72
2023/05/25 04:26:12;;;;;;;11.00;6.03;;;;;;;10.59;87.41;102759.94;4982218;28;20038;-72
2023/05/25 04:28:39;;;;;;;6.40;5.40;;;;;;;10.60;87.93;102759.09;4981963;28;20049;-72
2023/05/25 04:31:05;;;;;;;7.40;5.55;;;;;;;10.63;87.52;102761.69;4980952;28;20035;-72
2023/05/25 04:33:33;;;;;;;8.88;6.03;;;;;;;10.64;87.37;102763.41;4995041;28;20044;-72
2023/05/25 04:35:59;;;;;;;8.13;6.00;;;;;;;10.64;87.68;102763.41;4983719;28;20045;-72
2023/05/25 04:38:24;;;;;;;12.43;6.07;;;;;;;10.65;87.38;102768.63;4982671;28;20054;-72
2023/05/25 04:40:52;;;;;;;11.07;6.18;;;;;;;10.64;87.71;102780.00;4980673;28;20043;-72
2023/05/25 04:43:19;;;;;;;10.05;6.43;;;;;;;10.67;87.79;102779.09;4994499;28;20042;-72
2023/05/25 04:45:45;;;;;;;7.22;5.78;;;;;;;10.68;87.78;102780.84;4997315;28;20043;-72
2023/05/25 04:48:14;;;;;;;13.82;6.90;;;;;;;10.69;88.69;102783.44;4991797;28;20355;-72
2023/05/25 04:50:39;;;;;;;14.38;7.40;;;;;;;10.70;88.81;102784.31;5000281;28;20046;-72
2023/05/25 04:53:05;;;;;;;13.93;6.63;;;;;;;10.73;89.09;102779.03;4993761;28;20368;-72
2023/05/25 04:55:31;;;;;;;9.57;5.75;;;;;;;10.76;88.96;102786.88;4999924;28;20049;-72
2023/05/25 04:57:56;;;;;;;13.70;7.53;;;;;;;10.74;90.19;102789.50;4999476;28;20333;-72
2023/05/25 05:00:21;;;;;;;9.95;6.68;;;;;;;10.77;90.50;102791.25;4999881;28;20038;-72
2023/05/25 05:02:47;;;;;;;12.90;7.18;;;;;;;10.80;90.44;102796.41;4994939;28;20053;-72
2023/05/25 05:05:13;;;;;;;11.95;6.18;;;;;;;10.83;90.67;102800.78;4999980;28;20043;-72
2023/05/25 05:07:38;;;;;;;10.25;6.95;;;;;;;10.85;90.59;102792.00;4996051;28;20062;-72
2023/05/25 05:10:05;;;;;;;10.77;6.18;;;;;;;10.89;90.33;102798.09;4990525;28;20242;-72
2023/05/25 05:12:30;;;;;;;13.15;7.22;;;;;;;10.87;91.21;102805.09;4991078;28;20360;-72
2023/05/25 05:14:56;;;;;;;17.17;7.45;;;;;;;10.88;91.62;102802.47;4997733;28;20038;-72
2023/05/25 05:17:22;;;;;;;15.23;7.07;;;;;;;10.89;91.87;102805.94;4997481;28;20053;-72
2023/05/25 05:19:48;;;;;;;11.57;6.70;;;;;;;10.92;91.65;102803.31;4995946;28;20349;-72
2023/05/25 05:22:14;;;;;;;17.10;7.53;;;;;;;10.95;91.37;102808.50;4981683;28;20045;-72
2023/05/25 05:24:40;;;;;;;15.75;7.20;;;;;;;11.01;91.05;102802.34;4998922;28;20050;-72
2023/05/25 05:27:06;;;;;;;16.67;6.63;;;;;;;11.03;90.88;102801.44;4998792;28;20525;-72
2023/05/25 05:29:33;;;;;;;11.80;7.30;;;;;;;11.06;91.14;102797.88;4996490;28;20092;-72
2023/05/25 05:31:59;;;;;;;13.18;6.85;;;;;;;11.07;91.07;102804.88;4996837;28;20233;-72
2023/05/25 05:34:24;;;;;;;11.93;6.88;;;;;;;11.06;91.69;102809.28;4995740;28;20085;-72
2023/05/25 05:36:50;;;;;;;14.98;8.18;;;;;;;11.05;91.75;102815.38;4996537;28;20340;-72
2023/05/25 05:39:15;;;;;;;20.65;8.60;;;;;;;11.03;92.54;102811.91;4998947;28;20061;-72
2023/05/25 05:41:43;;;;;;;14.32;7.70;;;;;;;11.10;92.84;102818.81;4997617;28;20042;-72
2023/05/25 05:44:11;;;;;;;16.52;8.48;;;;;;;11.15;92.24;102810.88;4997714;28;20113;-72
2023/05/25 05:46:36;;;;;;;13.70;7.90;;;;;;;11.18;92.53;102818.72;4996422;28;20046;-72
2023/05/25 05:49:02;;;;;;;20.15;8.80;;;;;;;11.21;92.82;102821.31;4996282;28;20037;-72
2023/05/25 05:51:28;;;;;;;12.05;7.28;;;;;;;11.28;92.82;102816.88;4998469;28;20045;-72
2023/05/25 05:53:54;;;;;;;10.63;6.97;;;;;;;11.33;92.33;102822.91;4997600;28;20048;-72
2023/05/25 05:56:20;;;;;;;14.60;7.13;;;;;;;11.38;92.52;102828.13;4997480;28;20043;-72
2023/05/25 05:58:48;;;;;;;14.43;7.00;;;;;;;11.39;92.28;102827.22;4996408;28;20042;-72
2023/05/25 06:01:14;;;;;;;10.93;6.63;;;;;;;11.43;91.96;102834.19;4998041;28;20077;-72
2023/05/25 06:03:39;;;;;;;12.00;5.68;;;;;;;11.54;90.93;102840.16;4996137;28;20105;-72
2023/05/25 06:06:05;;;;;;;10.07;5.35;;;;;;;11.50;88.40;102841.97;4998518;28;20367;-72
2023/05/25 06:08:30;;;;;;;9.50;4.90;;;;;;;11.63;88.09;102847.06;4997128;28;20286;-72
2023/05/25 06:10:56;;;;;;;10.23;5.07;;;;;;;11.63;87.59;102847.06;4998185;28;20036;-72
2023/05/25 06:13:21;;;;;;;9.43;4.05;;;;;;;11.61;86.96;102854.94;4994925;28;20269;-72
2023/05/25 06:15:47;;;;;;;7.75;4.25;;;;;;;11.63;85.84;102853.16;4996934;28;20022;-72
2023/05/25 06:18:12;;;;;;;11.10;4.32;;;;;;;11.64;86.30;102857.53;4997196;28;20345;-72
2023/05/25 06:20:37;;;;;;;6.68;4.25;;;;;;;11.70;86.77;102849.56;4996386;28;20225;-72
2023/05/25 06:23:03;;;;;;;9.73;4.93;;;;;;;11.78;85.69;102856.47;4996764;28;20098;-72
2023/05/25 06:25:28;;;;;;;8.40;4.93;;;;;;;11.81;85.69;102852.06;4997062;28;20053;-72
2023/05/25 06:27:53;;;;;;;10.38;5.50;;;;;;;11.90;86.09;102859.84;4998203;28;20022;-72
2023/05/25 06:30:19;;;;;;;9.73;5.68;;;;;;;11.87;85.87;102859.84;4987956;28;20121;-72
2023/05/25 06:32:44;;;;;;;10.70;5.28;;;;;;;11.87;86.13;102854.59;4995889;28;20057;-72
2023/05/25 06:35:16;;;;;;;17.42;5.72;;;;;;;11.86;86.19;102858.13;4988931;28;20372;-72
2023/05/25 06:37:41;;;;;;;14.07;5.60;;;;;;;11.86;86.88;102858.13;4997687;28;20113;-72
2023/05/25 06:40:10;;;;;;;13.65;5.82;;;;;;;11.91;87.26;102855.44;4997082;28;20149;-72
2023/05/25 06:42:36;;;;;;;11.82;5.53;;;;;;;11.95;87.21;102861.53;4997925;28;20214;-72
2023/05/25 06:45:02;;;;;;;13.50;5.78;;;;;;;11.99;87.45;102861.47;4997654;28;20101;-72
2023/05/25 06:47:28;;;;;;;15.38;5.95;;;;;;;11.98;87.60;102862.34;4997655;28;20068;-72
2023/05/25 06:49:53;;;;;;;10.32;5.13;;;;;;;11.97;88.11;102865.88;4997607;28;20046;-72
2023/05/25 06:52:18;;;;;;;14.15;6.03;;;;;;;12.00;87.85;102867.56;4995146;28;20038;-72
2023/05/25 06:54:44;;;;;;;16.75;5.45;;;;;;;12.01;88.21;102870.19;4995693;28;20336;-72
2023/05/25 06:57:09;;;;;;;13.30;5.68;;;;;;;12.05;88.01;102871.88;4995764;28;20081;-72
2023/05/25 06:59:35;;;;;;;11.77;5.60;;;;;;;12.14;88.47;102876.13;4988762;28;20335;-72
2023/05/25 07:02:00;;;;;;;15.63;5.28;;;;;;;12.18;88.26;102877.81;4982009;28;20042;-72
2023/05/25 07:04:27;;;;;;;12.88;5.00;;;;;;;12.19;86.16;102878.69;4994417;28;20117;-72
2023/05/25 07:06:52;;;;;;;15.18;3.97;;;;;;;12.25;86.77;102883.84;4995593;28;20101;-72
2023/05/25 07:09:18;;;;;;;8.05;4.15;;;;;;;12.32;86.67;102892.53;4996452;28;20077;-72
2023/05/25 07:11:43;;;;;;;10.60;4.25;;;;;;;12.36;86.09;102897.69;4994920;28;20057;-72
2023/05/25 07:14:09;;;;;;;9.98;3.97;;;;;;;12.35;85.52;102903.84;4994598;28;20038;-72
2023/05/25 07:16:34;;;;;;;10.77;4.05;;;;;;;12.39;85.38;102881.03;4994801;28;20044;-72
2023/05/25 07:18:59;;;;;;;10.95;3.97;;;;;;;12.38;85.24;102900.28;4994650;28;20061;-72
2023/05/25 07:21:25;;;;;;;8.77;4.65;;;;;;;12.43;85.60;102896.69;4994846;28;20135;-72
2023/05/25 07:23:51;;;;;;;11.18;4.35;;;;;;;12.51;85.50;102901.81;4994615;28;20042;-72
2023/05/25 07:26:16;;;;;;;8.15;4.07;;;;;;;12.61;84.88;102895.53;4995337;28;20030;-72
2023/05/25 07:28:41;;;;;;;9.60;3.35;;;;;;;12.68;84.53;102901.56;4995390;28;20333;-72
2023/05/25 07:31:09;;;;;;;8.85;3.40;;;;;;;12.79;84.34;102901.41;4995627;28;20045;-72
2023/05/25 07:33:34;;;;;;;7.28;3.58;;;;;;;12.96;83.19;102908.97;4996521;28;20355;-72
2023/05/25 07:35:59;;;;;;;4.70;3.33;;;;;;;13.02;82.36;102901.88;4995823;28;20034;-72
2023/05/25 07:38:25;;;;;;;8.23;3.70;;;;;;;13.09;81.80;102899.97;4996509;28;20284;-72
2023/05/25 07:40:51;;;;;;;8.18;2.78;;;;;;;13.21;80.83;102904.16;4997346;28;20042;-72
2023/05/25 07:43:16;;;;;;;6.50;2.63;;;;;;;13.28;80.08;102904.88;4997177;28;20137;-72
2023/05/25 07:45:42;;;;;;;5.28;2.97;;;;;;;13.35;80.04;102902.16;4996783;28;20086;-72
2023/05/25 07:48:08;;;;;;;7.93;2.80;;;;;;;13.41;79.85;102906.44;4996330;28;20057;-72
2023/05/25 07:50:33;;;;;;;8.88;3.28;;;;;;;13.46;78.80;102906.31;4996796;28;20393;-72
2023/05/25 07:52:59;;;;;;;5.75;3.10;;;;;;;13.43;77.60;102908.13;4997088;28;20318;-72
2023/05/25 07:55:25;;;;;;;6.38;3.15;;;;;;;13.35;77.48;102912.69;4997397;28;20041;-72
2023/05/25 07:57:51;;;;;;;3.63;2.55;;;;;;;13.37;78.38;102913.50;4995839;28;20018;-72
2023/05/25 08:00:17;;;;;;;5.65;3.05;;;;;;;13.33;78.20;102910.97;4995686;28;20038;-72
2023/05/25 08:02:43;;;;;;;6.50;2.83;;;;;;;13.37;78.46;102923.16;4997186;28;20133;-72
2023/05/25 08:05:09;;;;;;;8.55;3.00;;;;;;;13.35;79.42;102917.94;4997264;28;20038;-72
2023/05/25 08:07:34;;;;;;;7.95;3.70;;;;;;;13.39;78.95;102916.13;4997036;28;20038;-72
2023/05/25 08:10:00;;;;;;;5.22;3.17;;;;;;;13.37;79.14;102924.03;4996963;28;20093;-72
2023/05/25 08:12:26;;;;;;;8.45;3.42;;;;;;;13.39;78.98;102926.66;4996648;28;20117;-72
2023/05/25 08:14:53;;;;;;;7.47;3.08;;;;;;;13.47;78.62;102929.97;4995623;28;20057;-72
2023/05/25 08:17:19;;;;;;;10.73;3.78;;;;;;;13.53;79.04;102924.59;4997423;28;20065;-72
2023/05/25 08:19:44;;;;;;;6.95;3.13;;;;;;;13.58;78.43;102929.78;4996864;28;20383;-72
2023/05/25 08:22:10;;;;;;;5.57;3.03;;;;;;;13.61;78.42;102914.78;4996694;28;20042;-72
2023/05/25 08:24:35;;;;;;;7.40;2.65;;;;;;;13.65;78.28;102923.50;4996977;28;20026;-72
2023/05/25 08:27:01;;;;;;;7.50;3.00;;;;;;;13.67;77.40;102934.84;4996722;28;20042;-72
2023/05/25 08:29:27;;;;;;;6.10;3.33;;;;;;;13.69;77.63;102938.31;4996974;28;20333;-72
2023/05/25 08:31:52;;;;;;;8.27;3.28;;;;;;;13.76;77.20;102939.94;4997026;28;20049;-72
2023/05/25 08:34:18;;;;;;;4.32;2.78;;;;;;;13.76;76.43;102949.59;4997310;28;20097;-72
2023/05/25 08:36:43;;;;;;;8.75;3.00;;;;;;;13.71;75.05;102946.19;4996763;28;20101;-72
2023/05/25 08:39:09;;;;;;;8.32;2.80;;;;;;;13.69;76.37;102945.34;4996966;28;20244;-72
2023/05/25 08:41:41;;;;;;;4.60;2.85;;;;;;;13.67;75.97;102950.66;4997906;28;20333;-72
2023/05/25 08:44:07;;;;;;;8.27;3.25;;;;;;;13.66;76.03;102948.03;4997187;28;20225;-73
2023/05/25 08:46:33;;;;;;;4.35;2.75;;;;;;;13.62;76.68;102945.50;4998352;28;20030;-72
2023/05/25 08:49:07;;;;;;;12.27;3.22;;;;;;;13.62;76.51;102952.50;4999970;28;20221;-72
2023/05/25 08:51:36;;;;;;;5.50;3.13;;;;;;;13.68;76.83;102947.13;5000275;28;20321;-72
2023/05/25 08:54:11;;;;;;;;;;;;;;;13.70;77.09;102950.59;5000067;28;20041;-72
2023/05/25 08:57:01;;;;;;;5.07;2.75;;;;;;;13.73;76.21;102949.66;5000528;28;19906;-72
2023/05/25 08:59:33;;;;;;;4.78;2.78;;;;;;;13.70;76.23;102952.34;5000089;28;20109;-72
2023/05/25 09:02:38;;;;;;;8.35;3.05;;;;;;;13.70;76.58;102945.31;5000263;28;20337;-72
2023/05/25 09:05:04;;;;;;;5.25;2.55;;;;;;;13.71;76.58;102956.72;4984222;28;20041;-72
2023/05/25 09:07:30;;;;;;;7.15;2.92;;;;;;;13.73;75.97;102947.88;5000371;28;20038;-72
2023/05/25 09:09:57;;;;;;;10.50;3.28;;;;;;;13.73;75.48;102953.16;4999730;28;20085;-72
2023/05/25 09:12:23;;;;;;;6.15;2.92;;;;;;;13.75;75.31;102964.53;5000288;28;20301;-72
2023/05/25 09:14:49;;;;;;;8.18;3.15;;;;;;;13.77;75.27;102953.94;4999487;28;20037;-72
2023/05/25 09:17:15;;;;;;;5.25;2.55;;;;;;;13.72;75.26;102958.47;5000704;28;20353;-72
2023/05/25 09:19:41;;;;;;;5.70;2.70;;;;;;;13.68;76.17;102956.78;5000035;28;20264;-72
2023/05/25 09:22:06;;;;;;;7.05;2.75;;;;;;;13.64;75.34;102958.59;4999741;28;20033;-72
2023/05/25 09:24:33;;;;;;;6.25;2.78;;;;;;;13.61;75.25;102958.69;4999868;28;20089;-72
2023/05/25 09:26:58;;;;;;;5.72;2.60;;;;;;;13.59;75.63;102953.44;4999590;28;20346;-72
2023/05/25 09:29:25;;;;;;;7.15;3.75;;;;;;;13.60;76.69;102960.41;4999027;28;20026;-72
2023/05/25 09:31:50;;;;;;;9.88;3.45;;;;;;;13.61;76.83;102951.63;4999702;28;20026;-72
2023/05/25 09:34:16;;;;;;;7.47;3.25;;;;;;;13.64;76.88;102955.97;4999926;28;20321;-73
2023/05/25 09:36:41;;;;;;;3.72;2.60;;;;;;;13.73;76.82;102966.31;4999648;28;20249;-73
2023/05/25 09:39:10;;;;;;;4.28;2.33;;;;;;;13.74;76.85;102961.94;4998950;28;20223;-73
2023/05/25 09:41:36;;;;;;;4.72;2.88;;;;;;;13.74;77.21;102954.91;4999886;28;20107;-72
2023/05/25 09:44:05;;;;;;;6.93;3.42;;;;;;;13.75;76.60;102955.75;4999353;28;20044;-72
2023/05/25 09:46:35;;;;;;;;;;;;;;;13.75;75.45;102961.91;5000731;28;20044;-73
2023/05/25 09:49:01;;;;;;;8.57;2.42;;;;;;;13.82;75.70;102954.72;4999365;28;19993;-72
2023/05/25 09:51:27;;;;;;;3.38;2.30;;;;;;;13.85;76.02;102956.44;4998894;28;20173;-72
2023/05/25 09:53:52;;;;;;;3.75;2.50;;;;;;;13.87;75.82;102954.66;4998706;28;20070;-72
2023/05/25 09:56:18;;;;;;;4.82;2.65;;;;;;;13.94;75.62;102958.88;4999651;28;20053;-72
2023/05/25 09:58:44;;;;;;;5.00;2.50;;;;;;;13.99;75.22;102955.25;5000053;28;20042;-72
2023/05/25 10:01:10;;;;;;;7.00;2.80;;;;;;;14.07;74.86;102951.59;4999191;28;20030;-72
2023/05/25 10:03:45;;;;;;;4.72;2.67;;;;;;;14.20;73.99;102956.53;4996495;28;20372;-72
2023/05/25 10:06:12;;;;;;;3.67;2.92;;;;;;;14.31;72.74;102958.94;4998404;28;20316;-72
2023/05/25 10:08:38;;;;;;;7.22;2.55;;;;;;;14.49;71.61;102954.16;4997991;28;20303;-72
2023/05/25 10:11:04;;;;;;;3.75;2.17;;;;;;;14.56;68.51;102953.09;4998711;28;20042;-72
2023/05/25 10:13:31;;;;;;;5.22;2.20;;;;;;;14.65;68.63;102952.06;4998241;28;20030;-72
2023/05/25 10:15:58;;;;;;;4.55;2.58;;;;;;;14.67;67.04;102945.81;4998795;28;20352;-72
2023/05/25 10:18:26;;;;;;;8.90;2.30;;;;;;;14.81;67.39;102947.25;4998598;28;20395;-72
2023/05/25 10:21:01;;;;;;;4.97;2.55;;;;;;;14.93;66.73;102954.88;4997166;28;20033;-72
2023/05/25 10:23:35;;;;;;;7.57;2.60;;;;;;;15.01;66.26;102952.03;4991824;28;20084;-72
2023/05/25 10:26:03;;;;;;;4.97;2.05;;;;;;;15.01;65.35;102946.75;4998045;28;20038;-72
2023/05/25 10:28:33;;;;;;;4.10;2.50;;;;;;;15.00;66.88;102945.03;4995139;28;20045;-72
2023/05/25 10:30:59;;;;;;;6.65;2.35;;;;;;;14.95;65.79;102959.22;4991840;28;20061;-72
2023/05/25 10:33:25;;;;;;;3.92;2.45;;;;;;;14.90;65.22;102941.78;4988422;28;20042;-72
2023/05/25 10:35:54;;;;;;;6.03;2.95;;;;;;;14.91;64.94;102949.63;4990677;28;20235;-72
2023/05/25 10:38:21;;;;;;;7.68;2.60;;;;;;;14.84;63.06;102955.94;4989872;28;20058;-72
2023/05/25 10:40:49;;;;;;;7.03;2.33;;;;;;;14.90;64.00;102957.59;4988289;28;20049;-72
2023/05/25 10:43:16;;;;;;;5.82;2.38;;;;;;;14.94;65.08;102957.47;4988803;28;20389;-72
2023/05/25 10:45:42;;;;;;;7.90;2.70;;;;;;;15.04;65.70;102965.16;4989425;28;20069;-72
2023/05/25 10:48:08;;;;;;;10.70;3.17;;;;;;;15.05;65.16;102967.75;4991191;28;20101;-72
2023/05/25 10:50:35;;;;;;;5.25;2.22;;;;;;;15.02;63.92;102965.19;4994244;28;20042;-72
2023/05/25 10:53:01;;;;;;;7.22;2.60;;;;;;;15.04;64.44;102975.69;4988138;28;20038;-72
2023/05/25 10:55:31;;;;;;;6.35;2.67;;;;;;;15.04;65.04;102978.34;4989911;28;20025;-72
2023/05/25 10:58:11;;;;;;;4.55;2.50;;;;;;;15.02;66.72;102972.25;4994041;28;20221;-72
2023/05/25 11:00:37;;;;;;;8.32;3.10;;;;;;;14.99;67.38;102973.19;4988507;28;20059;-72
2023/05/25 11:03:03;;;;;;;13.30;3.53;;;;;;;14.93;68.29;102974.19;4987521;28;20046;-72
2023/05/25 11:05:28;;;;;;;6.05;3.10;;;;;;;14.92;68.89;102968.97;4989081;28;20049;-72
2023/05/25 11:07:58;;;;;;;4.88;3.03;;;;;;;14.93;69.47;102968.91;4984712;28;20058;-72
2023/05/25 11:10:42;;;;;;;7.93;3.10;;;;;;;14.91;69.59;102964.59;4989296;28;20045;-72
2023/05/25 11:13:30;;;;;;;6.32;2.72;;;;;;;14.90;69.59;102962.88;4987341;28;20026;-72
2023/05/25 11:16:16;;;;;;;7.57;3.33;;;;;;;14.89;69.90;102969.03;4992046;28;20278;-72
2023/05/25 11:18:45;;;;;;;11.75;3.55;;;;;;;14.87;69.84;102969.06;4986674;28;20031;-72
2023/05/25 11:21:14;;;;;;;;;;;;;;;14.92;69.97;102972.47;4985645;28;20058;-72
2023/05/25 11:23:56;;;;;;;8.32;3.33;;;;;;;14.98;69.81;102961.75;4997199;28;19928;-72